createdAt,value
2018-10-01T00:00:35.561Z,5.67
2018-10-01T00:03:06.040Z,5.97
2018-10-01T00:05:36.119Z,6.20
2018-10-01T00:08:06.571Z,6.40
2018-10-01T00:10:36.907Z,6.77
2018-10-01T00:13:07.632Z,6.67
2018-10-01T00:15:39.201Z,6.00
2018-10-01T00:18:09.510Z,5.87
2018-10-01T00:20:45.362Z,6.20
2018-10-01T00:23:15.611Z,5.93
2018-10-01T00:25:46.129Z,6.30
2018-10-01T00:28:16.485Z,6.37
2018-10-01T00:30:48.875Z,5.50
2018-10-01T00:33:19.042Z,6.00
2018-10-01T00:35:49.163Z,6.20
2018-10-01T00:38:19.907Z,6.30
2018-10-01T00:40:50.036Z,6.67
2018-10-01T00:43:20.338Z,6.07
2018-10-01T00:45:50.563Z,7.10
2018-10-01T00:48:20.888Z,6.00
2018-10-01T00:50:52.179Z,5.90
2018-10-01T00:53:22.127Z,6.67
2018-10-01T00:55:52.272Z,5.33
2018-10-01T00:58:22.902Z,6.17
2018-10-01T01:00:52.813Z,6.53
2018-10-01T01:03:22.846Z,6.50
2018-10-01T01:05:54.055Z,6.47
2018-10-01T01:08:24.086Z,6.77
2018-10-01T01:10:55.294Z,6.10
2018-10-01T01:13:25.331Z,6.13
2018-10-01T01:15:55.633Z,7.40
2018-10-01T01:18:26.048Z,6.83
2018-10-01T01:20:56.871Z,7.77
2018-10-01T01:23:27.307Z,7.03
2018-10-01T01:25:57.611Z,8.60
2018-10-01T01:28:27.641Z,7.37
2018-10-01T01:30:58.101Z,8.50
2018-10-01T01:33:29.080Z,8.40
2018-10-01T01:35:59.405Z,8.83
2018-10-01T01:38:29.661Z,9.47
2018-10-01T01:40:59.676Z,10.27
2018-10-01T01:43:30.341Z,9.07
2018-10-01T01:46:00.661Z,9.23
2018-10-01T01:48:30.809Z,9.20
2018-10-01T01:51:01.049Z,9.50
2018-10-01T01:53:32.240Z,10.53
2018-10-01T01:56:03.335Z,9.40
2018-10-01T01:58:33.302Z,10.33
2018-10-01T02:01:03.637Z,10.10
2018-10-01T02:03:33.859Z,9.70
2018-10-01T02:06:04.090Z,10.33
2018-10-01T02:08:34.390Z,10.70
2018-10-01T02:11:06.317Z,9.63
2018-10-01T02:13:36.505Z,10.50
2018-10-01T02:16:06.769Z,10.10
2018-10-01T02:18:37.156Z,10.80
2018-10-01T02:21:07.571Z,10.70
2018-10-01T02:23:37.754Z,11.90
2018-10-01T02:26:07.968Z,11.27
2018-10-01T02:28:38.039Z,11.53
2018-10-01T02:31:08.364Z,10.50
2018-10-01T02:33:38.629Z,11.90
2018-10-01T02:36:09.104Z,10.03
2018-10-01T02:38:39.245Z,12.47
2018-10-01T02:41:10.609Z,12.17
2018-10-01T02:43:40.723Z,13.90
2018-10-01T02:46:11.062Z,11.00
2018-10-01T02:48:40.978Z,11.30
2018-10-01T02:51:11.656Z,12.27
2018-10-01T02:53:46.472Z,11.37
2018-10-01T02:56:16.666Z,11.23
2018-10-01T02:58:46.922Z,11.23
2018-10-01T03:01:17.798Z,10.77
2018-10-01T03:03:48.121Z,12.00
2018-10-01T03:06:18.320Z,12.20
2018-10-01T03:08:49.396Z,13.50
2018-10-01T03:11:20.297Z,12.00
2018-10-01T03:13:50.796Z,13.20
2018-10-01T03:16:20.986Z,12.90
2018-10-01T03:18:51.378Z,13.73
2018-10-01T03:21:21.982Z,13.33
2018-10-01T03:23:52.101Z,13.67
2018-10-01T03:26:22.455Z,12.30
2018-10-01T03:28:52.490Z,13.63
2018-10-01T03:31:23.275Z,13.20
2018-10-01T03:33:53.705Z,13.40
2018-10-01T03:36:26.909Z,14.10
2018-10-01T03:38:57.056Z,15.00
2018-10-01T03:41:28.016Z,13.63
2018-10-01T03:43:58.221Z,13.60
2018-10-01T03:46:29.801Z,13.90
2018-10-01T03:49:03.519Z,13.30
2018-10-01T03:51:33.938Z,13.93
2018-10-01T03:54:04.215Z,15.13
2018-10-01T03:56:34.631Z,14.43
2018-10-01T03:59:04.601Z,14.03
2018-10-01T04:01:34.755Z,13.53
2018-10-01T04:04:05.010Z,14.33
2018-10-01T04:06:35.289Z,14.40
2018-10-01T04:09:06.716Z,15.93
2018-10-01T04:11:37.640Z,15.73
2018-10-01T04:14:07.658Z,15.07
2018-10-01T04:16:37.794Z,14.07
2018-10-01T04:19:08.161Z,15.70
2018-10-01T04:21:38.113Z,14.80
2018-10-01T04:24:08.181Z,14.10
2018-10-01T04:26:38.112Z,14.00
2018-10-01T04:29:08.588Z,15.13
2018-10-01T04:31:39.554Z,14.57
2018-10-01T04:34:09.483Z,15.03
2018-10-01T04:36:41.224Z,13.90
2018-10-01T04:39:13.772Z,12.93
2018-10-01T04:41:45.303Z,14.80
2018-10-01T04:44:15.702Z,14.67
2018-10-01T04:46:45.906Z,14.57
2018-10-01T04:49:16.335Z,14.50
2018-10-01T04:51:46.418Z,14.40
2018-10-01T04:54:16.078Z,14.60
2018-10-01T04:56:45.925Z,13.00
2018-10-01T04:59:15.956Z,13.50
2018-10-01T05:01:45.742Z,13.10
2018-10-01T05:04:15.413Z,12.40
2018-10-01T05:06:50.977Z,13.30
2018-10-01T05:09:20.672Z,13.70
2018-10-01T05:11:50.470Z,14.67
2018-10-01T05:14:20.136Z,13.60
2018-10-01T05:16:49.819Z,14.30
2018-10-01T05:19:19.570Z,13.37
2018-10-01T05:21:49.243Z,12.87
2018-10-01T05:24:19.089Z,12.70
2018-10-01T05:26:49.672Z,12.50
2018-10-01T05:29:20.711Z,12.50
2018-10-01T05:31:50.589Z,12.90
2018-10-01T05:34:20.261Z,12.30
2018-10-01T05:36:49.980Z,12.17
2018-10-01T05:39:19.628Z,12.60
2018-10-01T05:41:49.283Z,12.60
2018-10-01T05:44:18.993Z,11.37
2018-10-01T05:46:48.697Z,13.00
2018-10-01T05:49:18.459Z,11.50
2018-10-01T05:51:48.162Z,11.60
2018-10-01T05:54:17.882Z,13.30
2018-10-01T05:56:47.752Z,12.93
2018-10-01T05:59:18.446Z,11.83
2018-10-01T06:01:49.169Z,12.67
2018-10-01T06:04:20.050Z,12.67
2018-10-01T06:06:49.850Z,13.03
2018-10-01T06:09:19.648Z,14.10
2018-10-01T06:11:49.431Z,13.30
2018-10-01T06:14:19.240Z,11.77
2018-10-01T06:16:49.577Z,13.10
2018-10-01T06:19:19.216Z,12.17
2018-10-01T06:21:48.888Z,12.50
2018-10-01T06:24:18.749Z,12.80
2018-10-01T06:26:48.471Z,12.20
2018-10-01T06:29:18.164Z,11.90
2018-10-01T06:31:47.913Z,12.03
2018-10-01T06:34:17.722Z,12.20
2018-10-01T06:36:47.431Z,11.53
2018-10-01T06:39:17.133Z,12.83
2018-10-01T06:41:46.889Z,11.57
2018-10-01T06:44:16.520Z,12.57
2018-10-01T06:46:46.160Z,12.37
2018-10-01T06:49:15.901Z,14.10
2018-10-01T06:51:45.636Z,14.00
2018-10-01T06:54:15.508Z,12.80
2018-10-01T06:56:45.174Z,13.93
2018-10-01T06:59:14.827Z,13.73
2018-10-01T07:01:44.529Z,13.20
2018-10-01T07:04:14.320Z,13.03
2018-10-01T07:06:43.970Z,13.80
2018-10-01T07:09:13.664Z,14.73
2018-10-01T07:11:43.503Z,14.03
2018-10-01T07:14:13.627Z,15.70
2018-10-01T07:16:43.408Z,15.00
2018-10-01T07:19:13.172Z,14.60
2018-10-01T07:21:42.868Z,14.10
2018-10-01T07:24:12.585Z,15.07
2018-10-01T07:26:42.283Z,13.10
2018-10-01T07:29:12.057Z,11.70
2018-10-01T07:31:41.708Z,12.30
2018-10-01T07:34:11.404Z,13.30
2018-10-01T07:36:43.248Z,13.13
2018-10-01T07:39:12.927Z,13.27
2018-10-01T07:41:42.713Z,13.30
2018-10-01T07:44:12.452Z,12.90
2018-10-01T07:46:42.542Z,14.37
2018-10-01T07:49:12.395Z,14.10
2018-10-01T07:51:42.532Z,13.80
2018-10-01T07:54:13.468Z,13.97
2018-10-01T07:56:44.603Z,13.27
2018-10-01T07:59:16.662Z,12.30
2018-10-01T08:01:47.583Z,12.47
2018-10-01T08:04:19.931Z,13.70
2018-10-01T08:06:50.241Z,13.20
2018-10-01T08:09:21.748Z,12.60
2018-10-01T08:11:52.929Z,13.70
2018-10-01T08:14:22.943Z,14.67
2018-10-01T08:16:53.034Z,12.80
2018-10-01T08:19:23.251Z,13.53
2018-10-01T08:21:53.656Z,14.00
2018-10-01T08:24:24.556Z,14.00
2018-10-01T08:26:55.140Z,14.33
2018-10-01T08:29:24.821Z,14.50
2018-10-01T08:31:54.537Z,13.17
2018-10-01T08:34:24.391Z,14.50
2018-10-01T08:36:54.254Z,15.00
2018-10-01T08:39:23.951Z,17.00
2018-10-01T08:41:53.598Z,14.53
2018-10-01T08:44:23.430Z,16.47
2018-10-01T08:46:53.221Z,18.27
2018-10-01T08:49:59.398Z,17.57
2018-10-01T08:52:34.058Z,17.70
2018-10-01T08:55:04.050Z,17.80
2018-10-01T08:57:33.763Z,18.30
2018-10-01T09:00:03.562Z,18.50
2018-10-01T09:02:33.297Z,19.07
2018-10-01T09:05:03.772Z,20.73
2018-10-01T09:07:33.601Z,19.40
2018-10-01T09:10:03.363Z,19.70
2018-10-01T09:12:34.167Z,20.30
2018-10-01T09:15:03.947Z,20.47
2018-10-01T09:17:33.622Z,20.40
2018-10-01T09:20:03.345Z,20.50
2018-10-01T09:22:33.079Z,20.70
2018-10-01T09:25:02.757Z,20.80
2018-10-01T09:27:33.127Z,20.93
2018-10-01T09:30:03.763Z,21.73
2018-10-01T09:32:33.919Z,21.77
2018-10-01T09:35:04.296Z,20.20
2018-10-01T09:37:34.448Z,20.97
2018-10-01T09:40:04.253Z,22.17
2018-10-01T09:42:35.832Z,21.77
2018-10-01T09:45:06.074Z,20.73
2018-10-01T09:47:37.262Z,20.00
2018-10-01T09:50:10.227Z,19.57
2018-10-01T09:52:40.387Z,20.70
2018-10-01T09:55:10.870Z,21.73
2018-10-01T09:57:42.321Z,24.13
2018-10-01T10:00:12.336Z,21.93
2018-10-01T10:02:41.995Z,22.13
2018-10-01T10:05:13.036Z,21.97
2018-10-01T10:07:42.757Z,23.80
2018-10-01T10:10:12.522Z,23.53
2018-10-01T10:12:44.021Z,23.67
2018-10-01T10:15:13.994Z,24.80
2018-10-01T10:17:43.699Z,24.73
2018-10-01T10:20:13.443Z,22.40
2018-10-01T10:22:43.964Z,24.80
2018-10-01T10:25:14.795Z,24.50
2018-10-01T10:27:44.684Z,21.53
2018-10-01T10:30:14.500Z,21.53
2018-10-01T10:32:44.182Z,19.30
2018-10-01T10:35:14.957Z,20.60
2018-10-01T10:37:44.713Z,19.70
2018-10-01T10:40:14.434Z,21.57
2018-10-01T10:42:44.110Z,21.77
2018-10-01T10:45:13.804Z,24.97
2018-10-01T10:47:43.504Z,26.77
2018-10-01T10:50:13.267Z,24.57
2018-10-01T10:52:43.047Z,24.00
2018-10-01T10:55:13.062Z,24.40
2018-10-01T10:57:42.793Z,25.07
2018-10-01T11:00:16.355Z,25.40
2018-10-01T11:02:47.448Z,23.57
2018-10-01T11:05:18.294Z,25.20
2018-10-01T11:07:47.997Z,25.73
2018-10-01T11:10:17.708Z,26.53
2018-10-01T11:12:47.472Z,27.47
2018-10-01T11:15:18.550Z,25.57
2018-10-01T11:17:48.157Z,23.67
2018-10-01T11:20:17.958Z,24.87
2018-10-01T11:22:47.631Z,24.80
2018-10-01T11:25:17.392Z,21.90
2018-10-01T11:27:47.054Z,25.10
2018-10-01T11:30:16.752Z,25.00
2018-10-01T11:32:46.456Z,24.57
2018-10-01T11:35:16.364Z,25.20
2018-10-01T11:37:45.939Z,27.00
2018-10-01T11:40:15.676Z,24.50
2018-10-01T11:42:45.461Z,23.97
2018-10-01T11:45:15.226Z,23.20
2018-10-01T11:47:45.206Z,21.13
2018-10-01T11:50:16.509Z,21.97
2018-10-01T11:52:46.249Z,21.30
2018-10-01T11:55:17.525Z,23.60
2018-10-01T11:57:47.326Z,23.60
2018-10-01T12:00:19.077Z,25.50
2018-10-01T12:02:49.140Z,24.47
2018-10-01T12:05:18.951Z,26.30
2018-10-01T12:07:48.647Z,26.70
2018-10-01T12:10:19.038Z,24.30
2018-10-01T12:12:49.451Z,25.10
2018-10-01T12:15:19.791Z,25.83
2018-10-01T12:17:49.500Z,28.07
2018-10-01T12:20:19.099Z,27.93
2018-10-01T12:22:48.720Z,28.23
2018-10-01T12:25:18.335Z,28.50
2018-10-01T12:27:48.232Z,28.53
2018-10-01T12:30:17.870Z,29.07
2018-10-01T12:32:47.578Z,30.13
2018-10-01T12:35:17.225Z,30.43
2018-10-01T12:37:47.405Z,29.73
2018-10-01T12:40:17.099Z,30.37
2018-10-01T12:42:46.894Z,36.10
2018-10-01T12:45:16.690Z,30.33
2018-10-01T12:47:46.353Z,31.50
2018-10-01T12:50:16.026Z,28.97
2018-10-01T12:52:45.807Z,27.40
2018-10-01T12:55:16.138Z,30.90
2018-10-01T12:57:46.596Z,30.93
2018-10-01T13:00:16.947Z,27.20
2018-10-01T13:02:47.091Z,26.97
2018-10-01T13:05:17.383Z,23.97
2018-10-01T13:07:47.691Z,22.97
2018-10-01T13:10:18.018Z,23.53
2018-10-01T13:12:49.216Z,24.93
2018-10-01T13:15:20.647Z,22.57
2018-10-01T13:17:50.867Z,23.60
2018-10-01T13:20:20.568Z,21.97
2018-10-01T13:22:50.444Z,23.47
2018-10-01T13:25:21.260Z,22.23
2018-10-01T13:27:51.047Z,22.40
2018-10-01T13:30:20.924Z,21.10
2018-10-01T13:32:50.432Z,20.47
2018-10-01T13:35:20.133Z,22.73
2018-10-01T13:37:49.921Z,22.20
2018-10-01T13:40:20.469Z,22.47
2018-10-01T13:42:50.074Z,22.80
2018-10-01T13:45:19.886Z,22.17
2018-10-01T13:47:49.554Z,23.00
2018-10-01T13:50:19.340Z,23.30
2018-10-01T13:52:48.981Z,22.70
2018-10-01T13:55:18.809Z,22.33
2018-10-01T13:57:48.499Z,21.03
2018-10-01T14:00:18.326Z,21.63
2018-10-01T14:02:48.605Z,22.30
2018-10-01T14:05:18.853Z,22.83
2018-10-01T14:07:48.499Z,22.90
2018-10-01T14:10:18.330Z,23.10
2018-10-01T14:12:48.077Z,22.60
2018-10-01T14:15:17.819Z,23.60
2018-10-01T14:17:47.503Z,21.87
2018-10-01T14:20:17.127Z,23.90
2018-10-01T14:22:47.229Z,22.47
2018-10-01T14:25:16.965Z,24.63
2018-10-01T14:27:47.029Z,25.20
2018-10-01T14:30:16.975Z,23.97
2018-10-01T14:32:46.599Z,23.23
2018-10-01T14:35:16.308Z,24.73
2018-10-01T14:37:47.124Z,24.17
2018-10-01T14:40:16.838Z,25.07
2018-10-01T14:42:46.452Z,25.63
2018-10-01T14:45:16.167Z,24.37
2018-10-01T14:47:45.846Z,23.43
2018-10-01T14:50:16.607Z,24.27
2018-10-01T14:52:46.983Z,22.83
2018-10-01T14:55:17.977Z,22.27
2018-10-01T14:57:48.237Z,23.77
2018-10-01T15:00:18.321Z,22.87
2018-10-01T15:02:48.405Z,21.33
2018-10-01T15:05:18.227Z,23.20
2018-10-01T15:07:47.986Z,24.67
2018-10-01T15:10:17.682Z,22.90
2018-10-01T15:12:47.820Z,22.50
2018-10-01T15:15:17.677Z,22.70
2018-10-01T15:17:48.462Z,21.30
2018-10-01T15:20:18.945Z,22.30
2018-10-01T15:22:48.672Z,22.77
2018-10-01T15:25:19.018Z,21.70
2018-10-01T15:27:50.516Z,21.40
2018-10-01T15:30:21.367Z,21.00
2018-10-01T15:32:51.781Z,21.87
2018-10-01T15:35:21.910Z,20.27
2018-10-01T15:37:52.150Z,21.03
2018-10-01T15:40:23.144Z,20.13
2018-10-01T15:42:53.503Z,21.03
2018-10-01T15:45:24.420Z,21.80
2018-10-01T15:47:55.145Z,21.53
2018-10-01T15:50:24.847Z,21.93
2018-10-01T15:52:55.604Z,22.07
2018-10-01T15:55:25.464Z,23.40
2018-10-01T15:57:55.560Z,22.43
2018-10-01T16:00:25.863Z,23.10
2018-10-01T16:02:56.123Z,23.40
2018-10-01T16:05:26.524Z,23.30
2018-10-01T16:07:56.257Z,22.47
2018-10-01T16:10:26.082Z,22.97
2018-10-01T16:12:55.889Z,22.57
2018-10-01T16:15:25.831Z,22.57
2018-10-01T16:17:55.724Z,24.13
2018-10-01T16:20:25.507Z,23.07
2018-10-01T16:22:55.234Z,22.53
2018-10-01T16:25:25.712Z,22.10
2018-10-01T16:27:55.983Z,23.80
2018-10-01T16:30:26.147Z,23.40
2018-10-01T16:32:56.711Z,21.10
2018-10-01T16:35:27.271Z,22.50
2018-10-01T16:37:58.127Z,23.10
2018-10-01T16:40:27.914Z,22.57
2018-10-01T16:42:57.713Z,24.70
2018-10-01T16:45:28.026Z,24.00
2018-10-01T16:47:59.792Z,25.23
2018-10-01T16:50:30.322Z,25.27
2018-10-01T16:53:00.121Z,26.70
2018-10-01T16:55:31.251Z,26.80
2018-10-01T16:58:01.147Z,28.70
2018-10-01T17:00:31.000Z,29.23
2018-10-01T17:03:01.894Z,30.77
2018-10-01T17:05:31.556Z,30.93
2018-10-01T17:08:01.226Z,29.73
2018-10-01T17:10:30.985Z,31.33
2018-10-01T17:13:00.901Z,30.23
2018-10-01T17:15:36.729Z,31.33
2018-10-01T17:18:06.446Z,31.53
2018-10-01T17:20:36.648Z,29.67
2018-10-01T17:23:07.488Z,29.23
2018-10-01T17:25:37.630Z,27.13
2018-10-01T17:28:07.753Z,29.33
2018-10-01T17:30:39.563Z,30.57
2018-10-01T17:33:09.355Z,30.83
2018-10-01T17:35:43.070Z,29.67
2018-10-01T17:38:14.137Z,31.23
2018-10-01T17:40:44.169Z,32.80
2018-10-01T17:43:13.947Z,31.17
2018-10-01T17:45:43.728Z,32.40
2018-10-01T17:48:14.457Z,33.00
2018-10-01T17:50:44.277Z,33.63
2018-10-01T17:53:15.257Z,32.93
2018-10-01T17:55:45.034Z,34.93
2018-10-01T17:58:14.830Z,34.93
2018-10-01T18:00:44.879Z,33.33
2018-10-01T18:03:14.608Z,33.20
2018-10-01T18:05:44.424Z,31.70
2018-10-01T18:08:14.503Z,32.47
2018-10-01T18:10:44.593Z,34.63
2018-10-01T18:13:14.871Z,32.43
2018-10-01T18:15:45.122Z,33.60
2018-10-01T18:18:16.208Z,32.27
2018-10-01T18:20:55.936Z,32.60
2018-10-01T18:23:26.176Z,33.40
2018-10-01T18:25:56.036Z,32.47
2018-10-01T18:28:26.812Z,31.23
2018-10-01T18:30:56.905Z,30.13
2018-10-01T18:33:26.616Z,30.97
2018-10-01T18:35:57.110Z,31.20
2018-10-01T18:38:28.462Z,30.60
2018-10-01T18:40:59.054Z,29.77
2018-10-01T18:43:29.288Z,30.90
2018-10-01T18:46:00.399Z,32.77
2018-10-01T18:48:30.669Z,30.10
2018-10-01T18:51:01.579Z,31.20
2018-10-01T18:53:31.724Z,31.50
2018-10-01T18:56:02.087Z,32.40
2018-10-01T18:58:31.945Z,32.50
2018-10-01T19:01:02.012Z,30.80
2018-10-01T19:03:32.415Z,29.67
2018-10-01T19:06:02.407Z,30.03
2018-10-01T19:08:32.410Z,31.67
2018-10-01T19:11:02.094Z,29.50
2018-10-01T19:13:32.363Z,29.90
2018-10-01T19:16:02.618Z,28.67
2018-10-01T19:18:33.298Z,28.17
2018-10-01T19:21:03.324Z,26.90
2018-10-01T19:23:34.075Z,27.20
2018-10-01T19:26:04.491Z,26.87
2018-10-01T19:28:35.293Z,26.20
2018-10-01T19:31:06.144Z,27.23
2018-10-01T19:33:36.360Z,27.77
2018-10-01T19:36:06.421Z,28.67
2018-10-01T19:38:36.116Z,28.53
2018-10-01T19:41:06.539Z,29.00
2018-10-01T19:43:36.316Z,27.30
2018-10-01T19:46:06.994Z,29.27
2018-10-01T19:48:36.794Z,30.57
2018-10-01T19:51:06.501Z,29.23
2018-10-01T19:53:41.555Z,29.53
2018-10-01T19:56:11.428Z,28.77
2018-10-01T19:58:41.608Z,31.20
2018-10-01T20:01:11.383Z,29.60
2018-10-01T20:03:41.212Z,29.93
2018-10-01T20:06:11.082Z,30.53
2018-10-01T20:08:45.826Z,30.77
2018-10-01T20:11:15.615Z,29.47
2018-10-01T20:13:45.812Z,31.20
2018-10-01T20:16:15.691Z,31.37
2018-10-01T20:18:45.490Z,32.33
2018-10-01T20:21:15.428Z,35.27
2018-10-01T20:23:45.795Z,32.77
2018-10-01T20:26:17.117Z,32.63
2018-10-01T20:28:47.546Z,30.27
2018-10-01T20:31:17.545Z,31.17
2018-10-01T20:33:47.251Z,33.87
2018-10-01T20:36:17.075Z,31.13
2018-10-01T20:38:46.822Z,30.23
2018-10-01T20:41:16.586Z,30.50
2018-10-01T20:58:45.897Z,29.40
2018-10-01T21:01:15.700Z,31.30
2018-10-01T21:03:45.399Z,29.33
2018-10-01T21:06:15.123Z,29.90
2018-10-01T21:08:44.928Z,29.20
2018-10-01T21:11:14.638Z,31.50
2018-10-01T21:13:44.430Z,29.73
2018-10-01T21:16:14.143Z,31.63
2018-10-01T21:18:44.138Z,31.50
2018-10-01T21:21:13.829Z,32.53
2018-10-01T21:23:44.293Z,31.93
2018-10-01T21:26:14.288Z,32.60
2018-10-01T21:28:44.630Z,33.53
2018-10-01T21:31:14.826Z,32.37
2018-10-01T21:33:45.933Z,31.53
2018-10-01T21:36:16.425Z,29.30
2018-10-01T21:38:46.685Z,32.23
2018-10-01T21:41:17.862Z,32.43
2018-10-01T21:43:48.780Z,32.97
2018-10-01T21:46:19.222Z,32.80
2018-10-01T21:48:49.477Z,34.10
2018-10-01T21:51:19.835Z,36.03
2018-10-01T21:53:49.962Z,34.40
2018-10-01T21:56:20.365Z,37.07
2018-10-01T21:58:50.889Z,33.43
2018-10-01T22:01:25.870Z,34.80
2018-10-01T22:03:56.030Z,35.77
2018-10-01T22:06:26.256Z,36.03
2018-10-01T22:08:56.835Z,35.80
2018-10-01T22:11:27.081Z,33.97
2018-10-01T22:13:56.989Z,34.67
2018-10-01T22:16:27.004Z,35.43
2018-10-01T22:18:57.005Z,32.10
2018-10-01T22:21:27.079Z,35.03
2018-10-01T22:23:57.523Z,31.60
2018-10-01T22:26:27.600Z,31.53
2018-10-01T22:28:58.023Z,33.73
2018-10-01T22:31:28.322Z,32.87
2018-10-01T22:33:59.538Z,33.00
2018-10-01T22:36:29.553Z,31.90
2018-10-01T22:38:59.997Z,32.17
2018-10-01T22:41:31.154Z,31.40
2018-10-01T22:44:03.779Z,32.07
2018-10-01T22:46:35.297Z,32.63
2018-10-01T22:49:05.649Z,31.60
2018-10-01T22:51:35.557Z,31.00
2018-10-01T22:54:05.892Z,30.27
2018-10-01T22:56:36.301Z,30.63
2018-10-01T22:59:07.812Z,29.70
2018-10-01T23:01:37.842Z,30.37
2018-10-01T23:04:07.961Z,29.50
2018-10-01T23:06:38.240Z,30.10
2018-10-01T23:09:10.698Z,29.70
2018-10-01T23:11:40.710Z,29.10
2018-10-01T23:14:10.811Z,29.00
2018-10-01T23:16:40.976Z,29.13
2018-10-01T23:19:11.046Z,28.83
2018-10-01T23:21:41.044Z,27.60
2018-10-01T23:24:11.139Z,26.47
2018-10-01T23:26:42.164Z,25.93
2018-10-01T23:29:12.504Z,26.17
2018-10-01T23:31:42.444Z,26.80
2018-10-01T23:34:12.481Z,27.43
2018-10-01T23:36:42.566Z,26.47
2018-10-01T23:39:12.675Z,27.03
2018-10-01T23:41:42.750Z,26.90
2018-10-01T23:44:12.774Z,28.00
2018-10-01T23:46:42.794Z,29.40
2018-10-01T23:49:13.059Z,31.33
2018-10-01T23:51:44.475Z,27.93
2018-10-01T23:54:14.725Z,30.50
2018-10-01T23:56:44.580Z,29.73
2018-10-01T23:59:14.909Z,29.90
